sensor_id;sensor_type;location;lat;lon;timestamp;P1;durP1;ratioP1;P2;durP2;ratioP2
9712;SDS011;4895;50.926;6.870;2023-03-20T00:00:35;39.30;;;22.07;;
9712;SDS011;4895;50.926;6.870;2023-03-20T00:03:02;39.83;;;21.57;;
9712;SDS011;4895;50.926;6.870;2023-03-20T00:05:28;39.10;;;23.33;;
9712;SDS011;4895;50.926;6.870;2023-03-20T00:07:54;37.43;;;22.70;;
9712;SDS011;4895;50.926;6.870;2023-03-20T00:10:21;37.80;;;21.57;;
9712;SDS011;4895;50.926;6.870;2023-03-20T00:12:50;38.20;;;22.07;;
9712;SDS011;4895;50.926;6.870;2023-03-20T00:15:32;34.13;;;21.30;;
9712;SDS011;4895;50.926;6.870;2023-03-20T00:18:00;42.70;;;22.50;;
9712;SDS011;4895;50.926;6.870;2023-03-20T00:20:26;34.47;;;21.73;;
9712;SDS011;4895;50.926;6.870;2023-03-20T00:22:51;44.87;;;23.77;;
9712;SDS011;4895;50.926;6.870;2023-03-20T00:25:21;35.50;;;22.07;;
9712;SDS011;4895;50.926;6.870;2023-03-20T00:27:47;40.27;;;23.77;;
9712;SDS011;4895;50.926;6.870;2023-03-20T00:30:17;39.33;;;23.43;;
9712;SDS011;4895;50.926;6.870;2023-03-20T00:32:46;36.73;;;22.17;;
9712;SDS011;4895;50.926;6.870;2023-03-20T00:35:18;43.30;;;24.10;;
9712;SDS011;4895;50.926;6.870;2023-03-20T00:37:46;38.23;;;23.30;;
9712;SDS011;4895;50.926;6.870;2023-03-20T00:40:12;40.50;;;22.00;;
9712;SDS011;4895;50.926;6.870;2023-03-20T00:42:37;37.70;;;21.43;;
9712;SDS011;4895;50.926;6.870;2023-03-20T00:45:03;40.37;;;22.77;;
9712;SDS011;4895;50.926;6.870;2023-03-20T00:47:29;39.80;;;21.90;;
9712;SDS011;4895;50.926;6.870;2023-03-20T00:49:56;40.97;;;23.57;;
9712;SDS011;4895;50.926;6.870;2023-03-20T00:52:22;39.13;;;23.77;;
9712;SDS011;4895;50.926;6.870;2023-03-20T00:54:48;38.73;;;23.17;;
9712;SDS011;4895;50.926;6.870;2023-03-20T00:57:14;40.47;;;22.23;;
9712;SDS011;4895;50.926;6.870;2023-03-20T00:59:48;43.53;;;22.93;;
9712;SDS011;4895;50.926;6.870;2023-03-20T01:02:24;41.87;;;23.50;;
9712;SDS011;4895;50.926;6.870;2023-03-20T01:04:52;39.30;;;23.53;;
9712;SDS011;4895;50.926;6.870;2023-03-20T01:07:18;39.03;;;24.30;;
9712;SDS011;4895;50.926;6.870;2023-03-20T01:09:43;37.77;;;23.20;;
9712;SDS011;4895;50.926;6.870;2023-03-20T01:12:11;41.60;;;24.57;;
9712;SDS011;4895;50.926;6.870;2023-03-20T01:14:37;39.10;;;22.63;;
9712;SDS011;4895;50.926;6.870;2023-03-20T01:17:03;38.07;;;23.60;;
9712;SDS011;4895;50.926;6.870;2023-03-20T01:19:28;42.20;;;23.57;;
9712;SDS011;4895;50.926;6.870;2023-03-20T01:21:54;39.10;;;21.77;;
9712;SDS011;4895;50.926;6.870;2023-03-20T01:24:20;37.77;;;21.83;;
9712;SDS011;4895;50.926;6.870;2023-03-20T01:26:45;36.10;;;21.57;;
9712;SDS011;4895;50.926;6.870;2023-03-20T01:31:44;39.27;;;21.73;;
9712;SDS011;4895;50.926;6.870;2023-03-20T01:34:09;40.90;;;21.97;;
9712;SDS011;4895;50.926;6.870;2023-03-20T01:36:36;36.23;;;21.30;;
9712;SDS011;4895;50.926;6.870;2023-03-20T01:39:01;36.73;;;20.83;;
9712;SDS011;4895;50.926;6.870;2023-03-20T01:41:27;38.43;;;21.03;;
9712;SDS011;4895;50.926;6.870;2023-03-20T01:43:53;37.77;;;20.13;;
9712;SDS011;4895;50.926;6.870;2023-03-20T01:46:23;36.40;;;21.07;;
9712;SDS011;4895;50.926;6.870;2023-03-20T01:51:15;37.37;;;20.70;;
9712;SDS011;4895;50.926;6.870;2023-03-20T01:54:09;38.83;;;21.57;;
9712;SDS011;4895;50.926;6.870;2023-03-20T01:56:42;39.00;;;21.10;;
9712;SDS011;4895;50.926;6.870;2023-03-20T01:59:18;37.50;;;19.17;;
9712;SDS011;4895;50.926;6.870;2023-03-20T02:01:46;32.70;;;20.53;;
9712;SDS011;4895;50.926;6.870;2023-03-20T02:04:12;30.93;;;20.03;;
9712;SDS011;4895;50.926;6.870;2023-03-20T02:06:38;36.70;;;20.23;;
9712;SDS011;4895;50.926;6.870;2023-03-20T02:09:04;32.73;;;18.60;;
9712;SDS011;4895;50.926;6.870;2023-03-20T02:11:29;29.30;;;18.30;;
9712;SDS011;4895;50.926;6.870;2023-03-20T02:13:56;36.43;;;19.90;;
9712;SDS011;4895;50.926;6.870;2023-03-20T02:16:22;34.73;;;20.27;;
9712;SDS011;4895;50.926;6.870;2023-03-20T02:18:48;32.73;;;19.50;;
9712;SDS011;4895;50.926;6.870;2023-03-20T02:37:40;32.70;;;19.60;;
9712;SDS011;4895;50.926;6.870;2023-03-20T02:40:51;36.10;;;20.93;;
9712;SDS011;4895;50.926;6.870;2023-03-20T02:48:49;32.13;;;19.33;;
9712;SDS011;4895;50.926;6.870;2023-03-20T02:51:32;32.40;;;20.53;;
9712;SDS011;4895;50.926;6.870;2023-03-20T03:02:24;37.00;;;20.77;;
9712;SDS011;4895;50.926;6.870;2023-03-20T03:05:01;37.13;;;20.33;;
9712;SDS011;4895;50.926;6.870;2023-03-20T03:07:31;39.30;;;20.50;;
9712;SDS011;4895;50.926;6.870;2023-03-20T03:09:59;35.70;;;20.47;;
9712;SDS011;4895;50.926;6.870;2023-03-20T03:12:28;35.93;;;21.40;;
9712;SDS011;4895;50.926;6.870;2023-03-20T03:14:56;38.10;;;21.10;;
9712;SDS011;4895;50.926;6.870;2023-03-20T03:17:25;33.77;;;21.30;;
9712;SDS011;4895;50.926;6.870;2023-03-20T03:19:53;40.70;;;22.47;;
9712;SDS011;4895;50.926;6.870;2023-03-20T03:22:21;38.40;;;21.60;;
9712;SDS011;4895;50.926;6.870;2023-03-20T03:24:48;33.53;;;19.83;;
9712;SDS011;4895;50.926;6.870;2023-03-20T03:27:23;38.47;;;21.57;;
9712;SDS011;4895;50.926;6.870;2023-03-20T03:29:55;34.83;;;20.30;;
9712;SDS011;4895;50.926;6.870;2023-03-20T03:32:29;39.63;;;21.80;;
9712;SDS011;4895;50.926;6.870;2023-03-20T03:34:56;34.73;;;18.83;;
9712;SDS011;4895;50.926;6.870;2023-03-20T03:37:23;34.30;;;20.20;;
9712;SDS011;4895;50.926;6.870;2023-03-20T03:39:56;41.43;;;20.60;;
9712;SDS011;4895;50.926;6.870;2023-03-20T03:42:38;36.90;;;17.87;;
9712;SDS011;4895;50.926;6.870;2023-03-20T03:45:16;33.63;;;19.60;;
9712;SDS011;4895;50.926;6.870;2023-03-20T03:50:28;39.93;;;20.20;;
9712;SDS011;4895;50.926;6.870;2023-03-20T03:52:56;34.03;;;19.20;;
9712;SDS011;4895;50.926;6.870;2023-03-20T03:55:28;35.63;;;19.53;;
9712;SDS011;4895;50.926;6.870;2023-03-20T03:57:59;36.43;;;19.47;;
9712;SDS011;4895;50.926;6.870;2023-03-20T04:00:28;34.70;;;19.93;;
9712;SDS011;4895;50.926;6.870;2023-03-20T04:02:56;34.57;;;19.00;;
9712;SDS011;4895;50.926;6.870;2023-03-20T04:05:23;34.10;;;20.20;;
9712;SDS011;4895;50.926;6.870;2023-03-20T04:07:52;29.63;;;18.03;;
9712;SDS011;4895;50.926;6.870;2023-03-20T04:10:18;39.70;;;19.43;;
9712;SDS011;4895;50.926;6.870;2023-03-20T04:12:44;35.57;;;19.50;;
9712;SDS011;4895;50.926;6.870;2023-03-20T04:15:10;39.07;;;18.20;;
9712;SDS011;4895;50.926;6.870;2023-03-20T04:17:36;36.40;;;19.47;;
9712;SDS011;4895;50.926;6.870;2023-03-20T04:20:02;32.77;;;17.33;;
9712;SDS011;4895;50.926;6.870;2023-03-20T04:22:28;36.57;;;18.00;;
9712;SDS011;4895;50.926;6.870;2023-03-20T04:24:54;28.70;;;16.67;;
9712;SDS011;4895;50.926;6.870;2023-03-20T04:27:19;30.90;;;15.77;;
9712;SDS011;4895;50.926;6.870;2023-03-20T04:29:45;32.43;;;17.10;;
9712;SDS011;4895;50.926;6.870;2023-03-20T04:32:10;31.13;;;14.17;;
9712;SDS011;4895;50.926;6.870;2023-03-20T04:34:36;32.33;;;15.73;;
9712;SDS011;4895;50.926;6.870;2023-03-20T04:37:01;29.03;;;15.70;;
9712;SDS011;4895;50.926;6.870;2023-03-20T04:39:26;28.80;;;14.30;;
9712;SDS011;4895;50.926;6.870;2023-03-20T04:41:52;26.47;;;14.03;;
9712;SDS011;4895;50.926;6.870;2023-03-20T04:44:17;23.77;;;13.13;;
9712;SDS011;4895;50.926;6.870;2023-03-20T04:46:42;19.57;;;11.60;;
9712;SDS011;4895;50.926;6.870;2023-03-20T04:49:08;25.40;;;12.70;;
9712;SDS011;4895;50.926;6.870;2023-03-20T04:51:33;30.93;;;12.63;;
9712;SDS011;4895;50.926;6.870;2023-03-20T04:53:58;23.63;;;12.27;;
9712;SDS011;4895;50.926;6.870;2023-03-20T04:56:24;24.00;;;12.33;;
9712;SDS011;4895;50.926;6.870;2023-03-20T04:58:49;25.97;;;12.90;;
9712;SDS011;4895;50.926;6.870;2023-03-20T05:01:14;28.03;;;12.17;;
9712;SDS011;4895;50.926;6.870;2023-03-20T05:03:40;26.27;;;12.87;;
9712;SDS011;4895;50.926;6.870;2023-03-20T05:06:05;23.43;;;11.80;;
9712;SDS011;4895;50.926;6.870;2023-03-20T05:08:31;22.73;;;12.20;;
9712;SDS011;4895;50.926;6.870;2023-03-20T05:10:56;24.20;;;12.33;;
9712;SDS011;4895;50.926;6.870;2023-03-20T05:13:21;22.53;;;12.47;;
9712;SDS011;4895;50.926;6.870;2023-03-20T05:15:47;24.53;;;12.40;;
9712;SDS011;4895;50.926;6.870;2023-03-20T05:18:12;21.17;;;11.03;;
9712;SDS011;4895;50.926;6.870;2023-03-20T05:20:37;26.57;;;13.07;;
9712;SDS011;4895;50.926;6.870;2023-03-20T05:23:03;32.80;;;13.00;;
9712;SDS011;4895;50.926;6.870;2023-03-20T05:25:28;27.30;;;12.90;;
9712;SDS011;4895;50.926;6.870;2023-03-20T05:27:53;24.63;;;12.20;;
9712;SDS011;4895;50.926;6.870;2023-03-20T05:30:19;23.80;;;12.77;;
9712;SDS011;4895;50.926;6.870;2023-03-20T05:32:44;24.73;;;13.00;;
9712;SDS011;4895;50.926;6.870;2023-03-20T05:35:10;24.40;;;11.90;;
9712;SDS011;4895;50.926;6.870;2023-03-20T05:37:36;21.27;;;12.30;;
9712;SDS011;4895;50.926;6.870;2023-03-20T05:40:02;22.20;;;11.80;;
9712;SDS011;4895;50.926;6.870;2023-03-20T05:42:27;21.00;;;11.67;;
9712;SDS011;4895;50.926;6.870;2023-03-20T05:44:53;22.27;;;12.00;;
9712;SDS011;4895;50.926;6.870;2023-03-20T05:47:18;23.40;;;12.97;;
9712;SDS011;4895;50.926;6.870;2023-03-20T05:49:43;25.70;;;13.07;;
9712;SDS011;4895;50.926;6.870;2023-03-20T05:52:08;30.53;;;14.13;;
9712;SDS011;4895;50.926;6.870;2023-03-20T05:54:34;23.30;;;13.07;;
9712;SDS011;4895;50.926;6.870;2023-03-20T05:56:59;30.83;;;13.97;;
9712;SDS011;4895;50.926;6.870;2023-03-20T05:59:24;32.53;;;15.83;;
9712;SDS011;4895;50.926;6.870;2023-03-20T06:01:50;28.67;;;14.73;;
9712;SDS011;4895;50.926;6.870;2023-03-20T06:04:15;25.47;;;14.53;;
9712;SDS011;4895;50.926;6.870;2023-03-20T06:06:41;30.00;;;15.20;;
9712;SDS011;4895;50.926;6.870;2023-03-20T06:09:06;32.53;;;15.13;;
9712;SDS011;4895;50.926;6.870;2023-03-20T06:11:31;32.53;;;16.07;;
9712;SDS011;4895;50.926;6.870;2023-03-20T06:13:57;34.47;;;16.60;;
9712;SDS011;4895;50.926;6.870;2023-03-20T06:16:23;30.83;;;15.97;;
9712;SDS011;4895;50.926;6.870;2023-03-20T06:18:48;28.73;;;15.77;;
9712;SDS011;4895;50.926;6.870;2023-03-20T06:21:14;33.70;;;17.30;;
9712;SDS011;4895;50.926;6.870;2023-03-20T06:23:39;34.30;;;17.27;;
9712;SDS011;4895;50.926;6.870;2023-03-20T06:26:05;31.90;;;16.50;;
9712;SDS011;4895;50.926;6.870;2023-03-20T06:28:30;28.70;;;15.87;;
9712;SDS011;4895;50.926;6.870;2023-03-20T06:30:56;31.87;;;16.67;;
9712;SDS011;4895;50.926;6.870;2023-03-20T06:33:21;33.67;;;16.93;;
9712;SDS011;4895;50.926;6.870;2023-03-20T06:35:46;31.57;;;17.13;;
9712;SDS011;4895;50.926;6.870;2023-03-20T06:38:12;28.50;;;16.50;;
9712;SDS011;4895;50.926;6.870;2023-03-20T06:40:38;28.47;;;15.73;;
9712;SDS011;4895;50.926;6.870;2023-03-20T06:43:03;29.57;;;15.40;;
9712;SDS011;4895;50.926;6.870;2023-03-20T06:45:29;28.50;;;15.63;;
9712;SDS011;4895;50.926;6.870;2023-03-20T06:47:54;25.10;;;15.07;;
9712;SDS011;4895;50.926;6.870;2023-03-20T06:50:20;30.90;;;16.30;;
9712;SDS011;4895;50.926;6.870;2023-03-20T06:52:45;26.30;;;16.47;;
9712;SDS011;4895;50.926;6.870;2023-03-20T06:55:11;29.73;;;16.37;;
9712;SDS011;4895;50.926;6.870;2023-03-20T06:57:37;25.90;;;15.87;;
9712;SDS011;4895;50.926;6.870;2023-03-20T07:00:03;25.43;;;14.23;;
9712;SDS011;4895;50.926;6.870;2023-03-20T07:02:29;28.80;;;14.57;;
9712;SDS011;4895;50.926;6.870;2023-03-20T07:04:54;29.53;;;16.63;;
9712;SDS011;4895;50.926;6.870;2023-03-20T07:07:20;25.57;;;14.73;;
9712;SDS011;4895;50.926;6.870;2023-03-20T07:09:46;23.30;;;13.77;;
9712;SDS011;4895;50.926;6.870;2023-03-20T07:12:12;25.17;;;14.43;;
9712;SDS011;4895;50.926;6.870;2023-03-20T07:14:43;25.93;;;14.90;;
9712;SDS011;4895;50.926;6.870;2023-03-20T07:17:09;26.70;;;14.93;;
9712;SDS011;4895;50.926;6.870;2023-03-20T07:19:35;27.20;;;14.47;;
9712;SDS011;4895;50.926;6.870;2023-03-20T07:22:01;39.13;;;14.67;;
9712;SDS011;4895;50.926;6.870;2023-03-20T07:24:27;21.30;;;13.03;;
9712;SDS011;4895;50.926;6.870;2023-03-20T07:26:52;27.97;;;13.80;;
9712;SDS011;4895;50.926;6.870;2023-03-20T07:29:18;24.27;;;12.83;;
9712;SDS011;4895;50.926;6.870;2023-03-20T07:31:43;28.33;;;12.50;;
9712;SDS011;4895;50.926;6.870;2023-03-20T07:34:09;19.90;;;10.93;;
9712;SDS011;4895;50.926;6.870;2023-03-20T07:36:34;22.43;;;11.47;;
9712;SDS011;4895;50.926;6.870;2023-03-20T07:39:00;20.10;;;11.10;;
9712;SDS011;4895;50.926;6.870;2023-03-20T07:41:25;18.50;;;10.20;;
9712;SDS011;4895;50.926;6.870;2023-03-20T07:43:50;17.37;;;10.63;;
9712;SDS011;4895;50.926;6.870;2023-03-20T07:46:16;19.30;;;11.70;;
9712;SDS011;4895;50.926;6.870;2023-03-20T07:48:44;21.00;;;10.77;;
9712;SDS011;4895;50.926;6.870;2023-03-20T07:51:09;19.57;;;9.70;;
9712;SDS011;4895;50.926;6.870;2023-03-20T07:53:35;18.57;;;9.40;;
9712;SDS011;4895;50.926;6.870;2023-03-20T07:56:01;19.17;;;11.10;;
9712;SDS011;4895;50.926;6.870;2023-03-20T07:58:26;14.87;;;8.77;;
9712;SDS011;4895;50.926;6.870;2023-03-20T08:00:51;17.00;;;8.67;;
9712;SDS011;4895;50.926;6.870;2023-03-20T08:03:16;13.97;;;7.83;;
9712;SDS011;4895;50.926;6.870;2023-03-20T08:05:42;14.13;;;8.53;;
9712;SDS011;4895;50.926;6.870;2023-03-20T08:08:07;12.53;;;7.90;;
9712;SDS011;4895;50.926;6.870;2023-03-20T08:10:33;15.20;;;8.20;;
9712;SDS011;4895;50.926;6.870;2023-03-20T08:12:58;14.80;;;9.00;;
9712;SDS011;4895;50.926;6.870;2023-03-20T08:15:23;15.27;;;8.17;;
9712;SDS011;4895;50.926;6.870;2023-03-20T08:17:49;12.53;;;7.47;;
9712;SDS011;4895;50.926;6.870;2023-03-20T08:20:14;13.43;;;6.77;;
9712;SDS011;4895;50.926;6.870;2023-03-20T08:22:40;13.50;;;7.47;;
9712;SDS011;4895;50.926;6.870;2023-03-20T08:25:07;11.00;;;6.90;;
9712;SDS011;4895;50.926;6.870;2023-03-20T08:27:33;18.60;;;8.17;;
9712;SDS011;4895;50.926;6.870;2023-03-20T08:29:59;18.90;;;9.00;;
9712;SDS011;4895;50.926;6.870;2023-03-20T08:32:24;13.20;;;7.90;;
9712;SDS011;4895;50.926;6.870;2023-03-20T08:34:50;14.33;;;7.70;;
9712;SDS011;4895;50.926;6.870;2023-03-20T08:37:16;15.73;;;8.60;;
9712;SDS011;4895;50.926;6.870;2023-03-20T08:39:41;14.10;;;7.60;;
9712;SDS011;4895;50.926;6.870;2023-03-20T08:42:06;19.23;;;8.40;;
9712;SDS011;4895;50.926;6.870;2023-03-20T08:44:32;19.50;;;8.50;;
9712;SDS011;4895;50.926;6.870;2023-03-20T08:46:57;12.73;;;7.27;;
9712;SDS011;4895;50.926;6.870;2023-03-20T08:49:22;15.00;;;8.67;;
9712;SDS011;4895;50.926;6.870;2023-03-20T08:51:48;16.90;;;7.83;;
9712;SDS011;4895;50.926;6.870;2023-03-20T08:54:13;12.83;;;7.40;;
9712;SDS011;4895;50.926;6.870;2023-03-20T08:56:40;12.53;;;6.90;;
9712;SDS011;4895;50.926;6.870;2023-03-20T08:59:06;16.23;;;7.80;;
9712;SDS011;4895;50.926;6.870;2023-03-20T09:01:31;12.00;;;7.53;;
9712;SDS011;4895;50.926;6.870;2023-03-20T09:03:56;18.70;;;8.80;;
9712;SDS011;4895;50.926;6.870;2023-03-20T09:06:21;16.13;;;8.60;;
9712;SDS011;4895;50.926;6.870;2023-03-20T09:08:47;22.93;;;8.97;;
9712;SDS011;4895;50.926;6.870;2023-03-20T09:11:12;16.53;;;8.53;;
9712;SDS011;4895;50.926;6.870;2023-03-20T09:13:37;20.87;;;8.43;;
9712;SDS011;4895;50.926;6.870;2023-03-20T09:16:03;19.57;;;8.93;;
9712;SDS011;4895;50.926;6.870;2023-03-20T09:18:28;19.60;;;9.10;;
9712;SDS011;4895;50.926;6.870;2023-03-20T09:20:54;15.30;;;8.43;;
9712;SDS011;4895;50.926;6.870;2023-03-20T09:23:20;17.40;;;8.50;;
9712;SDS011;4895;50.926;6.870;2023-03-20T09:25:46;12.23;;;7.83;;
9712;SDS011;4895;50.926;6.870;2023-03-20T09:28:11;22.30;;;9.80;;
9712;SDS011;4895;50.926;6.870;2023-03-20T09:30:37;18.87;;;8.53;;
9712;SDS011;4895;50.926;6.870;2023-03-20T09:33:02;16.47;;;9.50;;
9712;SDS011;4895;50.926;6.870;2023-03-20T09:35:27;16.57;;;8.67;;
9712;SDS011;4895;50.926;6.870;2023-03-20T09:37:53;17.20;;;8.40;;
9712;SDS011;4895;50.926;6.870;2023-03-20T09:40:23;16.47;;;8.80;;
9712;SDS011;4895;50.926;6.870;2023-03-20T09:45:26;15.27;;;7.60;;
9712;SDS011;4895;50.926;6.870;2023-03-20T09:53:53;20.83;;;7.90;;
9712;SDS011;4895;50.926;6.870;2023-03-20T09:56:25;14.83;;;7.30;;
9712;SDS011;4895;50.926;6.870;2023-03-20T09:58:59;15.53;;;7.50;;
9712;SDS011;4895;50.926;6.870;2023-03-20T10:01:29;14.20;;;7.50;;
9712;SDS011;4895;50.926;6.870;2023-03-20T10:03:58;14.93;;;7.40;;
9712;SDS011;4895;50.926;6.870;2023-03-20T10:06:25;13.20;;;7.10;;
9712;SDS011;4895;50.926;6.870;2023-03-20T10:08:50;12.37;;;5.90;;
9712;SDS011;4895;50.926;6.870;2023-03-20T10:17:07;16.80;;;4.50;;
9712;SDS011;4895;50.926;6.870;2023-03-20T10:19:44;11.53;;;4.43;;
9712;SDS011;4895;50.926;6.870;2023-03-20T10:22:44;8.10;;;4.10;;
9712;SDS011;4895;50.926;6.870;2023-03-20T10:25:22;9.33;;;4.07;;
9712;SDS011;4895;50.926;6.870;2023-03-20T10:28:00;10.27;;;4.40;;
9712;SDS011;4895;50.926;6.870;2023-03-20T10:30:41;14.10;;;3.73;;
9712;SDS011;4895;50.926;6.870;2023-03-20T10:33:39;8.97;;;4.07;;
9712;SDS011;4895;50.926;6.870;2023-03-20T10:42:06;12.30;;;3.37;;
9712;SDS011;4895;50.926;6.870;2023-03-20T10:44:38;7.57;;;2.70;;
9712;SDS011;4895;50.926;6.870;2023-03-20T10:47:06;8.80;;;3.30;;
9712;SDS011;4895;50.926;6.870;2023-03-20T10:52:09;8.60;;;3.03;;
9712;SDS011;4895;50.926;6.870;2023-03-20T10:54:39;12.67;;;2.93;;
9712;SDS011;4895;50.926;6.870;2023-03-20T10:57:09;10.43;;;3.40;;
9712;SDS011;4895;50.926;6.870;2023-03-20T10:59:49;14.23;;;3.57;;
9712;SDS011;4895;50.926;6.870;2023-03-20T11:02:16;6.60;;;3.23;;
9712;SDS011;4895;50.926;6.870;2023-03-20T11:04:43;6.67;;;2.67;;
9712;SDS011;4895;50.926;6.870;2023-03-20T11:12:38;7.53;;;3.30;;
9712;SDS011;4895;50.926;6.870;2023-03-20T11:15:23;11.77;;;4.20;;
9712;SDS011;4895;50.926;6.870;2023-03-20T11:18:03;13.93;;;5.07;;
9712;SDS011;4895;50.926;6.870;2023-03-20T11:20:34;12.97;;;4.63;;
9712;SDS011;4895;50.926;6.870;2023-03-20T11:23:03;9.23;;;4.37;;
9712;SDS011;4895;50.926;6.870;2023-03-20T11:25:37;15.97;;;5.67;;
9712;SDS011;4895;50.926;6.870;2023-03-20T11:33:28;9.47;;;3.97;;
9712;SDS011;4895;50.926;6.870;2023-03-20T11:35:54;7.67;;;4.17;;
9712;SDS011;4895;50.926;6.870;2023-03-20T11:38:21;13.17;;;5.20;;
9712;SDS011;4895;50.926;6.870;2023-03-20T11:40:47;10.33;;;4.13;;
9712;SDS011;4895;50.926;6.870;2023-03-20T11:43:15;11.10;;;4.53;;
9712;SDS011;4895;50.926;6.870;2023-03-20T11:45:47;9.17;;;4.63;;
9712;SDS011;4895;50.926;6.870;2023-03-20T11:48:19;10.70;;;4.43;;
9712;SDS011;4895;50.926;6.870;2023-03-20T11:50:47;10.87;;;4.63;;
9712;SDS011;4895;50.926;6.870;2023-03-20T11:53:31;10.50;;;3.97;;
9712;SDS011;4895;50.926;6.870;2023-03-20T11:56:09;8.40;;;4.10;;
9712;SDS011;4895;50.926;6.870;2023-03-20T11:58:46;12.70;;;4.47;;
9712;SDS011;4895;50.926;6.870;2023-03-20T12:01:18;11.10;;;4.20;;
9712;SDS011;4895;50.926;6.870;2023-03-20T12:03:49;14.77;;;4.60;;
9712;SDS011;4895;50.926;6.870;2023-03-20T12:06:20;15.70;;;4.10;;
9712;SDS011;4895;50.926;6.870;2023-03-20T12:08:51;6.00;;;2.87;;
9712;SDS011;4895;50.926;6.870;2023-03-20T12:14:07;9.73;;;3.60;;
9712;SDS011;4895;50.926;6.870;2023-03-20T12:16:40;10.43;;;4.40;;
9712;SDS011;4895;50.926;6.870;2023-03-20T12:19:14;10.67;;;4.43;;
9712;SDS011;4895;50.926;6.870;2023-03-20T12:21:46;12.60;;;4.33;;
9712;SDS011;4895;50.926;6.870;2023-03-20T12:27:14;11.37;;;3.07;;
9712;SDS011;4895;50.926;6.870;2023-03-20T12:29:45;8.67;;;2.90;;
9712;SDS011;4895;50.926;6.870;2023-03-20T12:32:29;8.87;;;3.60;;
9712;SDS011;4895;50.926;6.870;2023-03-20T12:34:58;5.90;;;3.03;;
9712;SDS011;4895;50.926;6.870;2023-03-20T12:37:29;7.93;;;3.33;;
9712;SDS011;4895;50.926;6.870;2023-03-20T12:39:57;12.40;;;3.13;;
9712;SDS011;4895;50.926;6.870;2023-03-20T12:45:20;8.40;;;2.40;;
9712;SDS011;4895;50.926;6.870;2023-03-20T12:58:51;10.17;;;2.70;;
9712;SDS011;4895;50.926;6.870;2023-03-20T13:01:21;5.10;;;2.27;;
9712;SDS011;4895;50.926;6.870;2023-03-20T13:17:57;3.37;;;1.93;;
9712;SDS011;4895;50.926;6.870;2023-03-20T13:23:18;4.90;;;2.23;;
9712;SDS011;4895;50.926;6.870;2023-03-20T13:31:30;5.10;;;1.53;;
9712;SDS011;4895;50.926;6.870;2023-03-20T13:37:16;6.70;;;2.00;;
9712;SDS011;4895;50.926;6.870;2023-03-20T13:45:35;5.20;;;1.90;;
9712;SDS011;4895;50.926;6.870;2023-03-20T13:48:20;5.33;;;2.20;;
9712;SDS011;4895;50.926;6.870;2023-03-20T13:50:48;5.83;;;1.87;;
9712;SDS011;4895;50.926;6.870;2023-03-20T13:56:45;10.50;;;2.50;;
9712;SDS011;4895;50.926;6.870;2023-03-20T14:04:26;9.43;;;2.17;;
9712;SDS011;4895;50.926;6.870;2023-03-20T14:06:53;2.77;;;1.90;;
9712;SDS011;4895;50.926;6.870;2023-03-20T14:09:23;8.83;;;2.40;;
9712;SDS011;4895;50.926;6.870;2023-03-20T14:11:53;9.83;;;3.07;;
9712;SDS011;4895;50.926;6.870;2023-03-20T14:14:24;7.20;;;2.13;;
9712;SDS011;4895;50.926;6.870;2023-03-20T14:19:38;6.37;;;2.03;;
9712;SDS011;4895;50.926;6.870;2023-03-20T14:22:04;4.67;;;2.17;;
9712;SDS011;4895;50.926;6.870;2023-03-20T14:24:32;11.10;;;2.10;;
9712;SDS011;4895;50.926;6.870;2023-03-20T14:27:00;9.00;;;2.97;;
9712;SDS011;4895;50.926;6.870;2023-03-20T14:32:01;8.53;;;2.50;;
9712;SDS011;4895;50.926;6.870;2023-03-20T14:34:43;7.07;;;2.77;;
9712;SDS011;4895;50.926;6.870;2023-03-20T14:47:57;7.07;;;2.30;;
9712;SDS011;4895;50.926;6.870;2023-03-20T14:50:32;7.27;;;2.33;;
9712;SDS011;4895;50.926;6.870;2023-03-20T14:57:54;6.10;;;2.20;;
9712;SDS011;4895;50.926;6.870;2023-03-20T15:00:24;11.43;;;2.90;;
9712;SDS011;4895;50.926;6.870;2023-03-20T15:02:52;5.40;;;2.30;;
9712;SDS011;4895;50.926;6.870;2023-03-20T15:05:26;12.33;;;2.80;;
9712;SDS011;4895;50.926;6.870;2023-03-20T15:07:55;12.47;;;2.20;;
9712;SDS011;4895;50.926;6.870;2023-03-20T15:10:21;5.07;;;3.03;;
9712;SDS011;4895;50.926;6.870;2023-03-20T15:12:48;8.97;;;2.60;;
9712;SDS011;4895;50.926;6.870;2023-03-20T15:15:23;13.73;;;2.63;;
9712;SDS011;4895;50.926;6.870;2023-03-20T15:17:49;10.13;;;3.03;;
9712;SDS011;4895;50.926;6.870;2023-03-20T15:20:16;8.80;;;3.37;;
9712;SDS011;4895;50.926;6.870;2023-03-20T15:22:46;11.93;;;3.60;;
9712;SDS011;4895;50.926;6.870;2023-03-20T15:25:17;8.13;;;2.50;;
9712;SDS011;4895;50.926;6.870;2023-03-20T15:27:43;10.27;;;2.40;;
9712;SDS011;4895;50.926;6.870;2023-03-20T15:30:09;8.70;;;2.87;;
9712;SDS011;4895;50.926;6.870;2023-03-20T15:32:39;9.40;;;2.80;;
9712;SDS011;4895;50.926;6.870;2023-03-20T15:35:09;9.17;;;3.00;;
9712;SDS011;4895;50.926;6.870;2023-03-20T15:37:42;10.67;;;2.60;;
9712;SDS011;4895;50.926;6.870;2023-03-20T15:40:09;7.10;;;2.43;;
9712;SDS011;4895;50.926;6.870;2023-03-20T15:42:37;8.70;;;2.90;;
9712;SDS011;4895;50.926;6.870;2023-03-20T15:45:11;11.83;;;3.17;;
9712;SDS011;4895;50.926;6.870;2023-03-20T15:47:41;7.43;;;2.90;;
9712;SDS011;4895;50.926;6.870;2023-03-20T15:50:10;15.70;;;3.20;;
9712;SDS011;4895;50.926;6.870;2023-03-20T15:55:03;10.57;;;3.10;;
9712;SDS011;4895;50.926;6.870;2023-03-20T15:57:37;15.73;;;3.77;;
9712;SDS011;4895;50.926;6.870;2023-03-20T16:00:05;14.83;;;3.07;;
9712;SDS011;4895;50.926;6.870;2023-03-20T16:02:32;11.23;;;2.40;;
9712;SDS011;4895;50.926;6.870;2023-03-20T16:04:59;11.83;;;3.63;;
9712;SDS011;4895;50.926;6.870;2023-03-20T16:07:29;8.13;;;2.80;;
9712;SDS011;4895;50.926;6.870;2023-03-20T16:09:56;13.03;;;2.93;;
9712;SDS011;4895;50.926;6.870;2023-03-20T16:12:22;12.10;;;3.37;;
9712;SDS011;4895;50.926;6.870;2023-03-20T16:14:48;9.33;;;3.57;;
9712;SDS011;4895;50.926;6.870;2023-03-20T16:17:14;13.47;;;3.10;;
9712;SDS011;4895;50.926;6.870;2023-03-20T16:19:40;20.80;;;3.07;;
9712;SDS011;4895;50.926;6.870;2023-03-20T16:24:55;9.00;;;2.60;;
9712;SDS011;4895;50.926;6.870;2023-03-20T16:27:23;11.10;;;2.73;;
9712;SDS011;4895;50.926;6.870;2023-03-20T16:29:51;10.27;;;2.67;;
9712;SDS011;4895;50.926;6.870;2023-03-20T16:35:28;7.50;;;2.47;;
9712;SDS011;4895;50.926;6.870;2023-03-20T16:37:59;9.80;;;3.13;;
9712;SDS011;4895;50.926;6.870;2023-03-20T16:42:51;10.40;;;3.03;;
9712;SDS011;4895;50.926;6.870;2023-03-20T16:45:28;9.00;;;3.27;;
9712;SDS011;4895;50.926;6.870;2023-03-20T16:48:19;7.43;;;2.60;;
9712;SDS011;4895;50.926;6.870;2023-03-20T16:50:40;8.60;;;2.77;;
9712;SDS011;4895;50.926;6.870;2023-03-20T16:53:09;5.43;;;2.10;;
9712;SDS011;4895;50.926;6.870;2023-03-20T16:55:36;14.70;;;3.93;;
9712;SDS011;4895;50.926;6.870;2023-03-20T16:58:06;8.80;;;2.57;;
9712;SDS011;4895;50.926;6.870;2023-03-20T17:00:41;8.97;;;3.10;;
9712;SDS011;4895;50.926;6.870;2023-03-20T17:03:11;11.53;;;3.30;;
9712;SDS011;4895;50.926;6.870;2023-03-20T17:08:16;13.53;;;2.90;;
9712;SDS011;4895;50.926;6.870;2023-03-20T17:10:48;11.63;;;2.50;;
9712;SDS011;4895;50.926;6.870;2023-03-20T17:13:14;9.83;;;2.93;;
9712;SDS011;4895;50.926;6.870;2023-03-20T17:15:40;10.30;;;2.77;;
9712;SDS011;4895;50.926;6.870;2023-03-20T17:18:05;9.90;;;2.80;;
9712;SDS011;4895;50.926;6.870;2023-03-20T17:20:33;8.10;;;2.70;;
9712;SDS011;4895;50.926;6.870;2023-03-20T17:22:59;17.90;;;3.40;;
9712;SDS011;4895;50.926;6.870;2023-03-20T17:25:24;12.70;;;3.20;;
9712;SDS011;4895;50.926;6.870;2023-03-20T17:27:50;9.53;;;3.00;;
9712;SDS011;4895;50.926;6.870;2023-03-20T17:30:20;9.43;;;2.70;;
9712;SDS011;4895;50.926;6.870;2023-03-20T17:32:46;11.73;;;3.60;;
9712;SDS011;4895;50.926;6.870;2023-03-20T17:35:12;16.90;;;3.63;;
9712;SDS011;4895;50.926;6.870;2023-03-20T17:37:37;8.87;;;2.43;;
9712;SDS011;4895;50.926;6.870;2023-03-20T17:40:03;9.17;;;2.03;;
9712;SDS011;4895;50.926;6.870;2023-03-20T17:42:29;10.20;;;2.40;;
9712;SDS011;4895;50.926;6.870;2023-03-20T17:45:01;14.10;;;2.90;;
9712;SDS011;4895;50.926;6.870;2023-03-20T17:47:29;8.37;;;2.30;;
9712;SDS011;4895;50.926;6.870;2023-03-20T17:49:55;8.67;;;2.53;;